sensor_id;sensor_type;location;lat;lon;timestamp;pressure;altitude;pressure_sealevel;temperature;humidity
48517;BME280;34310;51.904;4.256;2022-11-20T00:01:15;101472.72;;;14.37;66.43
48517;BME280;34310;51.904;4.256;2022-11-20T00:03:43;101463.03;;;14.35;66.43
48517;BME280;34310;51.904;4.256;2022-11-20T00:06:14;101470.63;;;14.32;66.58
48517;BME280;34310;51.904;4.256;2022-11-20T00:08:42;101466.25;;;14.31;66.59
48517;BME280;34310;51.904;4.256;2022-11-20T00:11:15;101479.13;;;14.29;66.69
48517;BME280;34310;51.904;4.256;2022-11-20T00:13:48;101475.63;;;14.29;66.78
48517;BME280;34310;51.904;4.256;2022-11-20T00:16:19;101471.44;;;14.31;66.72
48517;BME280;34310;51.904;4.256;2022-11-20T00:18:46;101473.84;;;14.27;66.86
48517;BME280;34310;51.904;4.256;2022-11-20T00:21:17;101458.06;;;14.24;66.55
48517;BME280;34310;51.904;4.256;2022-11-20T00:23:44;101454.47;;;14.22;66.85
48517;BME280;34310;51.904;4.256;2022-11-20T00:26:17;101459.84;;;14.25;66.78
48517;BME280;34310;51.904;4.256;2022-11-20T00:28:50;101451.06;;;14.23;66.48
48517;BME280;34310;51.904;4.256;2022-11-20T00:31:18;101448.47;;;14.23;66.67
48517;BME280;34310;51.904;4.256;2022-11-20T00:33:46;101452.66;;;14.21;66.53
48517;BME280;34310;51.904;4.256;2022-11-20T00:36:18;101458.44;;;14.17;66.75
48517;BME280;34310;51.904;4.256;2022-11-20T00:38:46;101457.41;;;14.15;66.54
48517;BME280;34310;51.904;4.256;2022-11-20T00:41:15;101454.81;;;14.15;66.48
48517;BME280;34310;51.904;4.256;2022-11-20T00:43:43;101456.06;;;14.20;66.55
48517;BME280;34310;51.904;4.256;2022-11-20T00:46:15;101460.03;;;14.29;66.45
48517;BME280;34310;51.904;4.256;2022-11-20T00:48:43;101461.44;;;14.37;66.12
48517;BME280;34310;51.904;4.256;2022-11-20T00:51:13;101458.47;;;14.44;66.07
48517;BME280;34310;51.904;4.256;2022-11-20T00:53:40;101451.09;;;14.50;66.12
48517;BME280;34310;51.904;4.256;2022-11-20T00:56:11;101439.28;;;14.55;65.93
48517;BME280;34310;51.904;4.256;2022-11-20T00:58:40;101436.97;;;14.60;66.00
48517;BME280;34310;51.904;4.256;2022-11-20T01:03:39;101437.19;;;14.63;65.68
48517;BME280;34310;51.904;4.256;2022-11-20T01:06:12;101445.16;;;14.66;65.54
48517;BME280;34310;51.904;4.256;2022-11-20T01:08:41;101442.66;;;14.67;65.67
48517;BME280;34310;51.904;4.256;2022-11-20T01:11:12;101439.34;;;14.70;65.62
48517;BME280;34310;51.904;4.256;2022-11-20T01:13:40;101448.06;;;14.70;65.27
48517;BME280;34310;51.904;4.256;2022-11-20T01:16:09;101454.94;;;14.70;65.36
48517;BME280;34310;51.904;4.256;2022-11-20T01:18:38;101451.56;;;14.71;65.40
48517;BME280;34310;51.904;4.256;2022-11-20T01:21:09;101458.44;;;14.70;65.47
48517;BME280;34310;51.904;4.256;2022-11-20T01:23:39;101455.84;;;14.70;65.48
48517;BME280;34310;51.904;4.256;2022-11-20T01:26:09;101447.97;;;14.69;65.38
48517;BME280;34310;51.904;4.256;2022-11-20T01:28:39;101447.88;;;14.67;65.31
48517;BME280;34310;51.904;4.256;2022-11-20T01:31:24;101450.28;;;14.64;65.33
48517;BME280;34310;51.904;4.256;2022-11-20T01:33:52;101441.47;;;14.62;65.39
48517;BME280;34310;51.904;4.256;2022-11-20T01:36:22;101441.47;;;14.62;65.28
48517;BME280;34310;51.904;4.256;2022-11-20T01:39:00;101445.50;;;14.57;65.34
48517;BME280;34310;51.904;4.256;2022-11-20T01:41:29;101445.28;;;14.54;65.41
48517;BME280;34310;51.904;4.256;2022-11-20T01:44:18;101438.31;;;14.53;65.61
48517;BME280;34310;51.904;4.256;2022-11-20T01:47:00;101431.22;;;14.50;65.42
48517;BME280;34310;51.904;4.256;2022-11-20T01:49:48;101429.88;;;14.44;65.72
48517;BME280;34310;51.904;4.256;2022-11-20T01:52:21;101437.69;;;14.44;65.66
48517;BME280;34310;51.904;4.256;2022-11-20T01:54:56;101443.44;;;14.40;65.66
48517;BME280;34310;51.904;4.256;2022-11-20T01:57:24;101440.94;;;14.41;65.77
48517;BME280;34310;51.904;4.256;2022-11-20T02:00:14;101431.06;;;14.36;65.95
48517;BME280;34310;51.904;4.256;2022-11-20T02:02:52;101437.75;;;14.32;66.01
48517;BME280;34310;51.904;4.256;2022-11-20T02:08:07;101450.34;;;14.26;66.15
48517;BME280;34310;51.904;4.256;2022-11-20T02:10:35;101441.56;;;14.24;66.07
48517;BME280;34310;51.904;4.256;2022-11-20T02:13:03;101430.09;;;14.20;66.21
48517;BME280;34310;51.904;4.256;2022-11-20T02:15:49;101435.09;;;14.17;66.35
48517;BME280;34310;51.904;4.256;2022-11-20T02:18:19;101427.28;;;14.17;66.30
48517;BME280;34310;51.904;4.256;2022-11-20T02:20:49;101418.59;;;14.17;66.21
48517;BME280;34310;51.904;4.256;2022-11-20T02:23:39;101418.38;;;14.14;66.38
48517;BME280;34310;51.904;4.256;2022-11-20T02:26:12;101422.88;;;14.16;66.35
48517;BME280;34310;51.904;4.256;2022-11-20T02:28:41;101413.97;;;14.13;66.33
48517;BME280;34310;51.904;4.256;2022-11-20T02:31:08;101406.88;;;14.10;66.55
48517;BME280;34310;51.904;4.256;2022-11-20T02:33:35;101408.69;;;14.11;66.72
48517;BME280;34310;51.904;4.256;2022-11-20T02:36:03;101407.69;;;14.09;66.45
48517;BME280;34310;51.904;4.256;2022-11-20T02:38:31;101417.06;;;14.07;66.59
48517;BME280;34310;51.904;4.256;2022-11-20T02:40:58;101415.38;;;14.08;66.75
48517;BME280;34310;51.904;4.256;2022-11-20T02:43:25;101413.69;;;14.08;66.62
48517;BME280;34310;51.904;4.256;2022-11-20T02:45:53;101411.69;;;14.04;66.46
48517;BME280;34310;51.904;4.256;2022-11-20T02:48:20;101403.00;;;14.04;66.65
48517;BME280;34310;51.904;4.256;2022-11-20T02:50:50;101404.69;;;14.03;66.59
48517;BME280;34310;51.904;4.256;2022-11-20T02:53:17;101394.22;;;14.02;66.62
48517;BME280;34310;51.904;4.256;2022-11-20T02:55:45;101396.81;;;14.02;66.90
48517;BME280;34310;51.904;4.256;2022-11-20T02:58:12;101389.91;;;14.02;66.79
48517;BME280;34310;51.904;4.256;2022-11-20T03:00:39;101386.53;;;14.03;66.75
48517;BME280;34310;51.904;4.256;2022-11-20T03:03:07;101393.41;;;14.03;66.73
48517;BME280;34310;51.904;4.256;2022-11-20T03:05:34;101394.31;;;14.03;66.27
48517;BME280;34310;51.904;4.256;2022-11-20T03:08:01;101393.91;;;14.10;66.11
48517;BME280;34310;51.904;4.256;2022-11-20T03:10:28;101397.03;;;14.18;66.01
48517;BME280;34310;51.904;4.256;2022-11-20T03:12:56;101393.91;;;14.23;65.93
48517;BME280;34310;51.904;4.256;2022-11-20T03:15:24;101386.63;;;14.31;65.78
48517;BME280;34310;51.904;4.256;2022-11-20T03:17:54;101385.41;;;14.39;65.87
48517;BME280;34310;51.904;4.256;2022-11-20T03:20:22;101382.31;;;14.45;65.61
48517;BME280;34310;51.904;4.256;2022-11-20T03:22:49;101373.25;;;14.51;65.57
48517;BME280;34310;51.904;4.256;2022-11-20T03:25:17;101376.94;;;14.55;65.53
48517;BME280;34310;51.904;4.256;2022-11-20T03:27:44;101371.94;;;14.58;65.29
48517;BME280;34310;51.904;4.256;2022-11-20T03:30:12;101371.22;;;14.61;65.35
48517;BME280;34310;51.904;4.256;2022-11-20T03:32:39;101373.91;;;14.62;65.20
48517;BME280;34310;51.904;4.256;2022-11-20T03:35:07;101366.13;;;14.62;65.26
48517;BME280;34310;51.904;4.256;2022-11-20T03:37:34;101352.22;;;14.62;65.21
48517;BME280;34310;51.904;4.256;2022-11-20T03:40:02;101349.81;;;14.65;65.18
48517;BME280;34310;51.904;4.256;2022-11-20T03:42:29;101340.31;;;14.65;65.29
48517;BME280;34310;51.904;4.256;2022-11-20T03:45:16;101337.72;;;14.65;65.06
48517;BME280;34310;51.904;4.256;2022-11-20T03:47:44;101338.72;;;14.67;64.87
48517;BME280;34310;51.904;4.256;2022-11-20T03:50:13;101332.59;;;14.67;65.05
48517;BME280;34310;51.904;4.256;2022-11-20T03:52:41;101327.31;;;14.65;64.89
48517;BME280;34310;51.904;4.256;2022-11-20T03:55:08;101321.31;;;14.66;64.80
48517;BME280;34310;51.904;4.256;2022-11-20T03:57:36;101323.03;;;14.66;64.90
48517;BME280;34310;51.904;4.256;2022-11-20T04:00:04;101322.84;;;14.63;64.91
48517;BME280;34310;51.904;4.256;2022-11-20T04:02:32;101317.72;;;14.64;64.81
48517;BME280;34310;51.904;4.256;2022-11-20T04:04:59;101309.94;;;14.64;64.83
48517;BME280;34310;51.904;4.256;2022-11-20T04:07:26;101307.16;;;14.61;64.68
48517;BME280;34310;51.904;4.256;2022-11-20T04:09:54;101306.16;;;14.59;64.69
48517;BME280;34310;51.904;4.256;2022-11-20T04:12:21;101295.56;;;14.56;64.70
48517;BME280;34310;51.904;4.256;2022-11-20T04:14:48;101293.59;;;14.52;64.63
48517;BME280;34310;51.904;4.256;2022-11-20T04:17:15;101291.00;;;14.52;64.52
48517;BME280;34310;51.904;4.256;2022-11-20T04:19:43;101291.72;;;14.49;64.97
48517;BME280;34310;51.904;4.256;2022-11-20T04:22:10;101301.00;;;14.46;64.64
48517;BME280;34310;51.904;4.256;2022-11-20T04:24:39;101310.38;;;14.44;64.77
48517;BME280;34310;51.904;4.256;2022-11-20T04:27:06;101306.66;;;14.40;64.65
48517;BME280;34310;51.904;4.256;2022-11-20T04:29:33;101313.28;;;14.35;64.82
48517;BME280;34310;51.904;4.256;2022-11-20T04:32:00;101309.78;;;14.35;64.88
48517;BME280;34310;51.904;4.256;2022-11-20T04:34:28;101303.50;;;14.31;64.98
48517;BME280;34310;51.904;4.256;2022-11-20T04:36:55;101306.91;;;14.30;65.01
48517;BME280;34310;51.904;4.256;2022-11-20T04:39:22;101306.72;;;14.27;64.96
48517;BME280;34310;51.904;4.256;2022-11-20T04:41:50;101300.53;;;14.25;65.31
48517;BME280;34310;51.904;4.256;2022-11-20T04:44:37;101304.72;;;14.23;65.21
48517;BME280;34310;51.904;4.256;2022-11-20T04:47:05;101297.63;;;14.20;65.36
48517;BME280;34310;51.904;4.256;2022-11-20T04:49:32;101294.84;;;14.17;65.55
48517;BME280;34310;51.904;4.256;2022-11-20T04:52:00;101295.75;;;14.18;65.64
48517;BME280;34310;51.904;4.256;2022-11-20T04:54:28;101295.44;;;14.13;65.45
48517;BME280;34310;51.904;4.256;2022-11-20T04:56:55;101299.63;;;14.11;65.62
48517;BME280;34310;51.904;4.256;2022-11-20T04:59:22;101306.22;;;14.06;65.81
48517;BME280;34310;51.904;4.256;2022-11-20T05:01:50;101308.72;;;14.05;65.91
48517;BME280;34310;51.904;4.256;2022-11-20T05:04:18;101309.25;;;13.99;66.00
48517;BME280;34310;51.904;4.256;2022-11-20T05:06:45;101304.75;;;13.97;66.09
48517;BME280;34310;51.904;4.256;2022-11-20T05:09:13;101306.16;;;13.91;66.19
48517;BME280;34310;51.904;4.256;2022-11-20T05:11:40;101309.66;;;13.92;66.10
48517;BME280;34310;51.904;4.256;2022-11-20T05:14:08;101301.44;;;13.99;65.94
48517;BME280;34310;51.904;4.256;2022-11-20T05:16:35;101303.91;;;14.11;65.54
48517;BME280;34310;51.904;4.256;2022-11-20T05:19:03;101303.53;;;14.18;65.57
48517;BME280;34310;51.904;4.256;2022-11-20T05:21:33;101293.63;;;14.25;65.47
48517;BME280;34310;51.904;4.256;2022-11-20T05:24:00;101297.50;;;14.32;65.32
48517;BME280;34310;51.904;4.256;2022-11-20T05:26:28;101303.16;;;14.40;65.21
48517;BME280;34310;51.904;4.256;2022-11-20T05:28:55;101300.22;;;14.47;65.25
48517;BME280;34310;51.904;4.256;2022-11-20T05:31:24;101298.00;;;14.53;64.94
48517;BME280;34310;51.904;4.256;2022-11-20T05:33:55;101280.06;;;14.57;64.90
48517;BME280;34310;51.904;4.256;2022-11-20T05:36:23;101272.47;;;14.61;64.90
48517;BME280;34310;51.904;4.256;2022-11-20T05:38:50;101270.84;;;14.63;64.81
48517;BME280;34310;51.904;4.256;2022-11-20T05:41:22;101268.44;;;14.66;64.78
48517;BME280;34310;51.904;4.256;2022-11-20T05:43:50;101255.44;;;14.66;64.82
48517;BME280;34310;51.904;4.256;2022-11-20T05:46:19;101256.34;;;14.66;64.73
48517;BME280;34310;51.904;4.256;2022-11-20T05:48:54;101249.44;;;14.67;64.59
48517;BME280;34310;51.904;4.256;2022-11-20T05:51:21;101259.94;;;14.68;64.48
48517;BME280;34310;51.904;4.256;2022-11-20T05:53:49;101244.34;;;14.68;64.77
48517;BME280;34310;51.904;4.256;2022-11-20T05:56:18;101240.03;;;14.69;64.76
48517;BME280;34310;51.904;4.256;2022-11-20T05:58:46;101247.94;;;14.70;64.60
48517;BME280;34310;51.904;4.256;2022-11-20T06:01:23;101228.75;;;14.68;64.47
48517;BME280;34310;51.904;4.256;2022-11-20T06:03:51;101222.66;;;14.68;64.67
48517;BME280;34310;51.904;4.256;2022-11-20T06:06:19;101229.56;;;14.67;64.56
48517;BME280;34310;51.904;4.256;2022-11-20T06:08:47;101236.44;;;14.67;64.41
48517;BME280;34310;51.904;4.256;2022-11-20T06:11:15;101232.97;;;14.66;64.55
48517;BME280;34310;51.904;4.256;2022-11-20T06:13:43;101232.06;;;14.66;64.54
48517;BME280;34310;51.904;4.256;2022-11-20T06:16:13;101218.06;;;14.64;64.49
48517;BME280;34310;51.904;4.256;2022-11-20T06:18:40;101212.88;;;14.64;64.41
48517;BME280;34310;51.904;4.256;2022-11-20T06:21:16;101212.78;;;14.62;64.62
48517;BME280;34310;51.904;4.256;2022-11-20T06:23:44;101219.69;;;14.62;64.43
48517;BME280;34310;51.904;4.256;2022-11-20T06:26:14;101218.69;;;14.60;64.45
48517;BME280;34310;51.904;4.256;2022-11-20T06:28:42;101227.22;;;14.57;64.47
48517;BME280;34310;51.904;4.256;2022-11-20T06:31:12;101227.03;;;14.54;64.52
48517;BME280;34310;51.904;4.256;2022-11-20T06:33:41;101231.34;;;14.53;64.54
48517;BME280;34310;51.904;4.256;2022-11-20T06:36:09;101225.06;;;14.50;64.34
48517;BME280;34310;51.904;4.256;2022-11-20T06:38:38;101226.66;;;14.48;64.58
48517;BME280;34310;51.904;4.256;2022-11-20T06:41:06;101233.47;;;14.46;64.58
48517;BME280;34310;51.904;4.256;2022-11-20T06:43:34;101244.41;;;14.42;64.67
48517;BME280;34310;51.904;4.256;2022-11-20T06:46:01;101241.72;;;14.40;64.82
48517;BME280;34310;51.904;4.256;2022-11-20T06:48:29;101243.22;;;14.37;64.92
48517;BME280;34310;51.904;4.256;2022-11-20T06:50:57;101244.75;;;14.33;64.81
48517;BME280;34310;51.904;4.256;2022-11-20T06:53:25;101234.25;;;14.32;64.92
48517;BME280;34310;51.904;4.256;2022-11-20T06:55:55;101234.88;;;14.27;65.05
48517;BME280;34310;51.904;4.256;2022-11-20T06:58:22;101237.47;;;14.27;65.03
48517;BME280;34310;51.904;4.256;2022-11-20T07:00:49;101234.69;;;14.24;65.21
48517;BME280;34310;51.904;4.256;2022-11-20T07:03:17;101230.22;;;14.22;65.23
48517;BME280;34310;51.904;4.256;2022-11-20T07:05:44;101225.72;;;14.19;65.22
48517;BME280;34310;51.904;4.256;2022-11-20T07:08:12;101224.84;;;14.19;65.25
48517;BME280;34310;51.904;4.256;2022-11-20T07:10:40;101217.03;;;14.19;65.35
48517;BME280;34310;51.904;4.256;2022-11-20T07:13:07;101215.13;;;14.16;65.36
48517;BME280;34310;51.904;4.256;2022-11-20T07:15:34;101215.03;;;14.15;65.51
48517;BME280;34310;51.904;4.256;2022-11-20T07:18:02;101214.84;;;14.12;65.62
48517;BME280;34310;51.904;4.256;2022-11-20T07:20:29;101209.56;;;14.10;65.74
48517;BME280;34310;51.904;4.256;2022-11-20T07:22:57;101210.25;;;14.21;65.71
48517;BME280;34310;51.904;4.256;2022-11-20T07:25:25;101209.81;;;14.28;65.33
48517;BME280;34310;51.904;4.256;2022-11-20T07:27:59;101212.69;;;14.33;65.46
48517;BME280;34310;51.904;4.256;2022-11-20T07:30:27;101216.63;;;14.41;65.25
48517;BME280;34310;51.904;4.256;2022-11-20T07:32:56;101218.78;;;14.46;65.25
48517;BME280;34310;51.904;4.256;2022-11-20T07:35:24;101218.34;;;14.53;65.12
48517;BME280;34310;51.904;4.256;2022-11-20T07:37:51;101216.00;;;14.58;65.14
48517;BME280;34310;51.904;4.256;2022-11-20T07:40:19;101213.59;;;14.61;65.10
48517;BME280;34310;51.904;4.256;2022-11-20T07:42:54;101209.47;;;14.65;65.20
48517;BME280;34310;51.904;4.256;2022-11-20T07:45:23;101215.75;;;14.68;65.15
48517;BME280;34310;51.904;4.256;2022-11-20T07:47:51;101214.94;;;14.69;65.05
48517;BME280;34310;51.904;4.256;2022-11-20T07:50:19;101221.03;;;14.70;65.17
48517;BME280;34310;51.904;4.256;2022-11-20T07:52:46;101224.53;;;14.70;65.02
48517;BME280;34310;51.904;4.256;2022-11-20T07:55:14;101213.34;;;14.71;65.01
48517;BME280;34310;51.904;4.256;2022-11-20T07:57:42;101206.44;;;14.72;65.19
48517;BME280;34310;51.904;4.256;2022-11-20T08:00:11;101204.72;;;14.72;65.07
48517;BME280;34310;51.904;4.256;2022-11-20T08:02:41;101214.31;;;14.73;65.22
48517;BME280;34310;51.904;4.256;2022-11-20T08:05:09;101216.91;;;14.73;65.24
48517;BME280;34310;51.904;4.256;2022-11-20T08:07:42;101217.81;;;14.74;64.97
48517;BME280;34310;51.904;4.256;2022-11-20T08:10:12;101216.03;;;14.73;65.17
48517;BME280;34310;51.904;4.256;2022-11-20T08:12:47;101218.63;;;14.73;65.11
48517;BME280;34310;51.904;4.256;2022-11-20T08:15:33;101210.91;;;14.74;64.95
48517;BME280;34310;51.904;4.256;2022-11-20T08:18:03;101209.03;;;14.72;65.15
48517;BME280;34310;51.904;4.256;2022-11-20T08:20:50;101208.13;;;14.71;65.01
48517;BME280;34310;51.904;4.256;2022-11-20T08:23:17;101208.03;;;14.70;65.12
48517;BME280;34310;51.904;4.256;2022-11-20T08:25:49;101206.25;;;14.69;65.20
48517;BME280;34310;51.904;4.256;2022-11-20T08:28:17;101206.16;;;14.67;65.23
48517;BME280;34310;51.904;4.256;2022-11-20T08:30:49;101200.78;;;14.64;65.32
48517;BME280;34310;51.904;4.256;2022-11-20T08:33:17;101193.69;;;14.62;65.16
48517;BME280;34310;51.904;4.256;2022-11-20T08:35:45;101192.72;;;14.60;65.34
48517;BME280;34310;51.904;4.256;2022-11-20T08:38:12;101183.03;;;14.57;65.56
48517;BME280;34310;51.904;4.256;2022-11-20T08:40:40;101189.94;;;14.56;65.54
48517;BME280;34310;51.904;4.256;2022-11-20T08:43:07;101188.25;;;14.57;65.53
48517;BME280;34310;51.904;4.256;2022-11-20T08:45:34;101195.13;;;14.56;65.54
48517;BME280;34310;51.904;4.256;2022-11-20T08:48:02;101189.66;;;14.52;65.65
48517;BME280;34310;51.904;4.256;2022-11-20T08:50:31;101188.78;;;14.51;65.52
48517;BME280;34310;51.904;4.256;2022-11-20T08:53:04;101174.69;;;14.48;65.86
48517;BME280;34310;51.904;4.256;2022-11-20T08:55:32;101180.00;;;14.49;65.70
48517;BME280;34310;51.904;4.256;2022-11-20T08:58:06;101186.78;;;14.47;65.75
48517;BME280;34310;51.904;4.256;2022-11-20T09:00:34;101174.47;;;14.45;65.70
48517;BME280;34310;51.904;4.256;2022-11-20T09:03:01;101176.09;;;14.43;65.78
48517;BME280;34310;51.904;4.256;2022-11-20T09:05:29;101180.28;;;14.41;65.81
48517;BME280;34310;51.904;4.256;2022-11-20T09:07:57;101175.88;;;14.40;65.83
48517;BME280;34310;51.904;4.256;2022-11-20T09:10:26;101167.91;;;14.37;65.98
48517;BME280;34310;51.904;4.256;2022-11-20T09:12:53;101163.50;;;14.36;66.08
48517;BME280;34310;51.904;4.256;2022-11-20T09:15:22;101165.03;;;14.32;66.04
48517;BME280;34310;51.904;4.256;2022-11-20T09:18:01;101159.03;;;14.33;66.19
48517;BME280;34310;51.904;4.256;2022-11-20T09:20:30;101150.16;;;14.30;66.13
48517;BME280;34310;51.904;4.256;2022-11-20T09:22:57;101148.28;;;14.27;66.38
48517;BME280;34310;51.904;4.256;2022-11-20T09:25:25;101149.88;;;14.25;66.34
48517;BME280;34310;51.904;4.256;2022-11-20T09:27:56;101147.09;;;14.22;66.50
48517;BME280;34310;51.904;4.256;2022-11-20T09:30:24;101142.81;;;14.22;66.39
48517;BME280;34310;51.904;4.256;2022-11-20T09:32:52;101131.34;;;14.19;66.40
48517;BME280;34310;51.904;4.256;2022-11-20T09:35:19;101126.84;;;14.16;66.63
48517;BME280;34310;51.904;4.256;2022-11-20T09:37:47;101119.03;;;14.16;66.54
48517;BME280;34310;51.904;4.256;2022-11-20T09:40:23;101112.06;;;14.15;66.51
48517;BME280;34310;51.904;4.256;2022-11-20T09:42:57;101110.25;;;14.14;66.70
48517;BME280;34310;51.904;4.256;2022-11-20T09:45:43;101099.28;;;14.18;66.50
48517;BME280;34310;51.904;4.256;2022-11-20T09:51:13;101094.91;;;14.32;66.26
48517;BME280;34310;51.904;4.256;2022-11-20T09:56:26;101080.28;;;14.47;66.03
48517;BME280;34310;51.904;4.256;2022-11-20T09:58:59;101069.44;;;14.54;65.92
48517;BME280;34310;51.904;4.256;2022-11-20T10:01:35;101075.88;;;14.61;65.85
48517;BME280;34310;51.904;4.256;2022-11-20T10:06:41;101078.09;;;14.70;65.62
48517;BME280;34310;51.904;4.256;2022-11-20T10:09:16;101060.88;;;14.72;65.66
48517;BME280;34310;51.904;4.256;2022-11-20T10:12:00;101055.78;;;14.73;65.74
48517;BME280;34310;51.904;4.256;2022-11-20T10:22:52;101045.75;;;14.79;65.90
48517;BME280;34310;51.904;4.256;2022-11-20T10:25:29;101040.56;;;14.79;65.71
48517;BME280;34310;51.904;4.256;2022-11-20T10:30:41;101031.06;;;14.80;65.96
48517;BME280;34310;51.904;4.256;2022-11-20T10:33:22;101028.53;;;14.81;65.86
48517;BME280;34310;51.904;4.256;2022-11-20T10:36:05;101022.44;;;14.81;66.05
48517;BME280;34310;51.904;4.256;2022-11-20T10:38:40;101013.75;;;14.80;65.99
48517;BME280;34310;51.904;4.256;2022-11-20T10:41:20;101002.38;;;14.78;65.88
48517;BME280;34310;51.904;4.256;2022-11-20T10:44:17;101001.19;;;14.73;65.29
48517;BME280;34310;51.904;4.256;2022-11-20T10:47:05;100997.78;;;14.74;65.69
48517;BME280;34310;51.904;4.256;2022-11-20T10:49:37;100991.81;;;14.75;65.76
48517;BME280;34310;51.904;4.256;2022-11-20T10:52:29;100997.09;;;14.77;65.79
48517;BME280;34310;51.904;4.256;2022-11-20T10:58:14;100983.22;;;14.76;66.02
48517;BME280;34310;51.904;4.256;2022-11-20T11:00:14;100977.81;;;14.73;66.12
48517;BME280;34310;51.904;4.256;2022-11-20T11:02:53;100972.53;;;14.72;66.31
48517;BME280;34310;51.904;4.256;2022-11-20T11:07:55;100945.47;;;14.68;66.63
48517;BME280;34310;51.904;4.256;2022-11-20T11:13:23;100910.63;;;14.65;66.49
48517;BME280;34310;51.904;4.256;2022-11-20T11:15:51;100906.81;;;14.58;66.63
48517;BME280;34310;51.904;4.256;2022-11-20T11:18:33;100905.81;;;14.56;66.59
48517;BME280;34310;51.904;4.256;2022-11-20T11:21:02;100894.47;;;14.54;66.85
48517;BME280;34310;51.904;4.256;2022-11-20T11:23:36;100883.19;;;14.53;66.67
48517;BME280;34310;51.904;4.256;2022-11-20T11:26:06;100882.44;;;14.56;66.56
48517;BME280;34310;51.904;4.256;2022-11-20T11:28:34;100866.22;;;14.60;66.77
48517;BME280;34310;51.904;4.256;2022-11-20T11:31:01;100862.16;;;14.65;66.57
48517;BME280;34310;51.904;4.256;2022-11-20T11:33:31;100869.06;;;14.65;66.82
48517;BME280;34310;51.904;4.256;2022-11-20T11:36:01;100869.88;;;14.64;66.85
48517;BME280;34310;51.904;4.256;2022-11-20T11:38:39;100869.63;;;14.59;66.99
48517;BME280;34310;51.904;4.256;2022-11-20T11:41:15;100853.06;;;14.57;67.01
48517;BME280;34310;51.904;4.256;2022-11-20T11:43:52;100853.06;;;14.57;67.10
48517;BME280;34310;51.904;4.256;2022-11-20T11:46:39;100848.44;;;14.51;67.32
48517;BME280;34310;51.904;4.256;2022-11-20T11:49:17;100853.53;;;14.50;67.20
48517;BME280;34310;51.904;4.256;2022-11-20T11:52:03;100839.66;;;14.49;67.18
48517;BME280;34310;51.904;4.256;2022-11-20T11:54:34;100841.34;;;14.49;67.38
48517;BME280;34310;51.904;4.256;2022-11-20T12:02:38;100837.78;;;14.47;67.54
48517;BME280;34310;51.904;4.256;2022-11-20T12:05:26;100822.81;;;14.43;67.67
48517;BME280;34310;51.904;4.256;2022-11-20T12:08:01;100809.91;;;14.44;67.71
48517;BME280;34310;51.904;4.256;2022-11-20T12:13:36;100798.25;;;14.38;67.63
48517;BME280;34310;51.904;4.256;2022-11-20T12:16:12;100804.44;;;14.40;67.72
48517;BME280;34310;51.904;4.256;2022-11-20T12:18:41;100791.38;;;14.38;67.69
48517;BME280;34310;51.904;4.256;2022-11-20T12:50:22;100744.84;;;14.26;67.74
48517;BME280;34310;51.904;4.256;2022-11-20T12:53:00;100733.56;;;14.26;67.77
48517;BME280;34310;51.904;4.256;2022-11-20T13:06:55;100705.66;;;14.22;67.81
48517;BME280;34310;51.904;4.256;2022-11-20T13:09:24;100704.44;;;14.32;67.65
48517;BME280;34310;51.904;4.256;2022-11-20T13:17:23;100700.72;;;14.43;67.49
48517;BME280;34310;51.904;4.256;2022-11-20T13:19:55;100690.41;;;14.44;67.64
48517;BME280;34310;51.904;4.256;2022-11-20T13:22:43;100674.13;;;14.47;67.38
48517;BME280;34310;51.904;4.256;2022-11-20T13:25:26;100660.31;;;14.48;67.35
48517;BME280;34310;51.904;4.256;2022-11-20T13:27:55;100651.63;;;14.47;67.43
48517;BME280;34310;51.904;4.256;2022-11-20T13:30:25;100646.44;;;14.47;67.60
48517;BME280;34310;51.904;4.256;2022-11-20T13:33:22;100632.81;;;14.51;67.26
48517;BME280;34310;51.904;4.256;2022-11-20T13:35:59;100623.97;;;14.48;67.09
48517;BME280;34310;51.904;4.256;2022-11-20T13:38:28;100622.88;;;14.44;67.31
48517;BME280;34310;51.904;4.256;2022-11-20T13:41:01;100620.97;;;14.42;67.37
48517;BME280;34310;51.904;4.256;2022-11-20T13:43:52;100617.59;;;14.43;67.30
48517;BME280;34310;51.904;4.256;2022-11-20T13:46:21;100607.22;;;14.43;67.33
48517;BME280;34310;51.904;4.256;2022-11-20T13:48:52;100615.63;;;14.39;67.35
48517;BME280;34310;51.904;4.256;2022-11-20T13:51:48;100598.34;;;14.39;67.30
48517;BME280;34310;51.904;4.256;2022-11-20T13:54:32;100590.31;;;14.35;67.49
48517;BME280;34310;51.904;4.256;2022-11-20T14:02:39;100576.94;;;14.43;67.36
48517;BME280;34310;51.904;4.256;2022-11-20T14:05:20;100576.31;;;14.47;67.18
48517;BME280;34310;51.904;4.256;2022-11-20T14:07:50;100572.31;;;14.54;67.24
48517;BME280;34310;51.904;4.256;2022-11-20T14:10:25;100553.84;;;14.66;66.98
48517;BME280;34310;51.904;4.256;2022-11-20T14:13:09;100553.66;;;14.79;66.72
48517;BME280;34310;51.904;4.256;2022-11-20T14:15:36;100537.66;;;14.89;66.53
48517;BME280;34310;51.904;4.256;2022-11-20T14:18:29;100542.41;;;14.98;66.33
48517;BME280;34310;51.904;4.256;2022-11-20T14:20:59;100532.47;;;15.07;65.86
48517;BME280;34310;51.904;4.256;2022-11-20T14:23:28;100531.13;;;15.15;65.84
48517;BME280;34310;51.904;4.256;2022-11-20T14:25:56;100530.59;;;15.22;65.85
48517;BME280;34310;51.904;4.256;2022-11-20T14:28:28;100529.16;;;15.29;65.58
48517;BME280;34310;51.904;4.256;2022-11-20T14:30:56;100514.69;;;15.34;65.30
48517;BME280;34310;51.904;4.256;2022-11-20T14:33:26;100511.47;;;15.39;65.21
48517;BME280;34310;51.904;4.256;2022-11-20T14:35:58;100506.53;;;15.45;65.01
48517;BME280;34310;51.904;4.256;2022-11-20T14:38:29;100494.69;;;15.52;64.98
48517;BME280;34310;51.904;4.256;2022-11-20T14:41:09;100488.09;;;15.59;64.91
48517;BME280;34310;51.904;4.256;2022-11-20T14:46:23;100474.00;;;15.73;64.41